Houlton, ME

7:41 PM EDT on September 23, 2014 (GMT -0400)
Houlton International | Change Station
CLOSE
Current Station
Airport
Location: Houlton,
Elevation: 492 ft
Nearby Weather Stations

Elev 492 ft 46.12 °N, 67.79 °W | Updated 48 minutes ago

Partly Cloudy
Partly Cloudy
52 °F
Feels Like 52 °F
N
7
Wind Variable Wind from West

Today
High -- | Low -- °F
--% Chance of Precip.
Yesterday
High -- | Low -- °F
Precip. -- in
6:19 AM 6:27 PM
Waning Crescent, 0% visible
Pressure 30.21 in
Visibility 10.0 miles
Clouds Few 7000 ft
Dew Point 42 °F
Humidity 69%
Rainfall 0.00 in
Snow Depth Not available.
UV 0 out of 12
Pollen 2.10 out of 12
Ozone Good
PM2.5 Good
Flu Activity Not available.
METAR KHUL 232253Z AUTO 26006KT 10SM FEW070 11/06 A3019 RMK AO2 SLP228 T01110056

More Conditions Fewer Conditions

Pressure 30.21 in
Visibility 10.0 miles
Clouds Few 7000 ft
Dew Point 42 °F
Humidity 69%
Rainfall 0.00 in
Snow Depth Not available.
UV 0 out of 12
Pollen 2.10 out of 12
Ozone Good
PM2.5 Good
Flu Activity Not available.
METAR KHUL 232253Z AUTO 26006KT 10SM FEW070 11/06 A3019 RMK AO2 SLP228 T01110056

More Conditions Fewer Conditions

10-Day Weather Forecast

Almanac

Astronomy

Sep. 23, 2014 Rise Set
Actual Time 6:19 AM EDT 6:27 PM EDT
Civil Twilight 5:49 AM EDT 6:56 PM EDT
Nautical Twilight 5:14 AM EDT 7:31 PM EDT
Astronomical Twilight 4:38 AM EDT 8:07 PM EDT
Moon 5:39 AM EDT 6:03 PM EDT
Length of Visible Light 13h 07m
Length of Day
12h 07m
Tomorrow will be 3m 15s shorter.
Waning Crescent, 0% of the Moon is Illuminated
Today
Waning Crescent
Sep 24
New
Oct 1
First Quarter
Oct 8
Full
Oct 15
Last Quarter

Today's Extremes

State Highs State Lows

Community

WunderPhotos

Upload Photos

1,755,821 photos uploaded!

WunderBlogs® & News

Nearby

Air Quality

  Air Quality AQ Index Pollutant
Yesterday Good
OZONE
Yesterday Good
PM2.5
Current Good
PM2.5
Current Good
OZONE
Tuesday Good
OZONE
Tuesday Good
PM2.5
Wednesday Good
OZONE
Wednesday Good
PM2.5
Thursday Good
OZONE
Thursday Good
PM2.5
Friday Good
OZONE
Friday Good
PM2.5
Saturday Good
OZONE
Saturday Good
PM2.5

Snow Depth

Station Depth Elevation
No new snow has been reported.

Earthquake Activity

City Distance Mag. Time & Date
No recent earthquake activity has been reported nearby.
Minimum magnitude displayed is 2.5.

Coastal Water Temperatures

Place Temperature
No Stations Reporting

Nearby Weather Stations